Time;durP1;ratioP1;P1;durP2;ratioP2;P2;SDS_P1;SDS_P2;PMS_P1;PMS_P2;Temp;Humidity;BMP_temperature;BMP_pressure;BME280_temperature;BME280_humidity;BME280_pressure;Samples;Min_cycle;Max_cycle;Signal;HPM_P1;HPM_P2
2021/03/07 00:00:27;;;;;;;38.35;16.35;;;-3.80;99.90;;;;;;4157985;28;20025;-64
2021/03/07 00:02:28;;;;;;;34.53;16.55;;;-3.80;99.90;;;;;;4140866;28;20095;-63
2021/03/07 00:04:29;;;;;;;36.70;17.15;;;-3.90;99.90;;;;;;4157580;28;20085;-63
2021/03/07 00:06:30;;;;;;;34.03;14.27;;;-3.90;99.90;;;;;;4158703;28;20049;-62
2021/03/07 00:08:36;;;;;;;33.67;14.82;;;-3.90;99.90;;;;;;4157820;28;20800;-63
2021/03/07 00:10:37;;;;;;;31.65;13.30;;;-3.90;99.90;;;;;;4158430;28;20099;-62
2021/03/07 00:12:38;;;;;;;31.13;12.63;;;-3.80;99.90;;;;;;4157388;28;20452;-64
2021/03/07 00:14:40;;;;;;;29.38;12.57;;;-3.80;99.90;;;;;;4157655;28;20092;-66
2021/03/07 00:16:41;;;;;;;23.70;10.45;;;-3.80;99.90;;;;;;4156973;28;20033;-65
2021/03/07 00:18:42;;;;;;;19.48;8.88;;;-3.70;99.90;;;;;;4159293;28;20033;-65
2021/03/07 00:20:43;;;;;;;18.02;8.15;;;-3.60;99.90;;;;;;4156954;28;20076;-64
2021/03/07 00:22:45;;;;;;;19.67;9.05;;;-3.50;99.90;;;;;;4158529;28;20095;-65
2021/03/07 00:24:46;;;;;;;17.10;7.82;;;-3.50;99.60;;;;;;4156969;28;20042;-64
2021/03/07 00:26:47;;;;;;;17.48;9.00;;;-3.40;99.30;;;;;;4157709;28;20099;-64
2021/03/07 00:28:48;;;;;;;20.58;8.60;;;-3.40;99.10;;;;;;4157784;28;20571;-64
2021/03/07 00:30:49;;;;;;;20.20;8.82;;;-3.40;99.00;;;;;;4156681;28;20111;-70
2021/03/07 00:32:50;;;;;;;19.85;8.57;;;-3.40;99.00;;;;;;4158055;28;20555;-64
2021/03/07 00:34:52;;;;;;;21.42;8.60;;;-3.40;99.10;;;;;;4156772;28;20049;-68
2021/03/07 00:36:53;;;;;;;24.13;10.27;;;-3.40;99.00;;;;;;4158287;28;20033;-64
2021/03/07 00:38:54;;;;;;;28.10;11.65;;;-3.40;99.10;;;;;;4156812;28;20092;-71
2021/03/07 00:40:55;;;;;;;33.55;12.82;;;-3.50;99.40;;;;;;4155928;28;20045;-65
2021/03/07 00:42:56;;;;;;;32.45;12.85;;;-3.50;99.60;;;;;;4156897;28;20029;-65
2021/03/07 00:44:58;;;;;;;30.98;13.10;;;-3.60;99.60;;;;;;4158151;28;20029;-67
2021/03/07 00:46:59;;;;;;;28.08;12.23;;;-3.60;99.80;;;;;;4156407;28;20033;-69
2021/03/07 00:49:00;;;;;;;28.45;12.27;;;-3.60;99.90;;;;;;4158271;28;20041;-68
2021/03/07 00:51:01;;;;;;;27.77;12.38;;;-3.70;99.80;;;;;;4156007;28;20095;-67
2021/03/07 00:53:03;;;;;;;24.85;12.10;;;-3.70;99.90;;;;;;4158059;28;20037;-66
2021/03/07 00:55:06;;;;;;;30.25;11.80;;;-3.70;99.90;;;;;;4156027;28;20098;-65
2021/03/07 00:57:08;;;;;;;28.92;13.73;;;-3.70;99.90;;;;;;4157000;28;20092;-64
2021/03/07 00:59:11;;;;;;;30.25;12.30;;;-3.70;99.90;;;;;;4156885;28;20033;-65
2021/03/07 01:01:12;;;;;;;30.02;12.95;;;-3.70;99.90;;;;;;4139080;28;20104;-63
2021/03/07 01:03:14;;;;;;;28.23;12.82;;;-3.80;99.90;;;;;;4157021;28;20030;-70
2021/03/07 01:05:16;;;;;;;31.10;12.15;;;-3.80;99.90;;;;;;4156732;28;20033;-64
2021/03/07 01:07:18;;;;;;;25.40;11.75;;;-3.80;99.90;;;;;;4157885;28;20708;-63
2021/03/07 01:09:20;;;;;;;29.30;11.90;;;-3.90;99.90;;;;;;4156551;28;20099;-65
2021/03/07 01:11:21;;;;;;;24.63;11.43;;;-3.90;99.90;;;;;;4157943;28;20099;-64
2021/03/07 01:13:22;;;;;;;23.38;10.13;;;-3.90;99.90;;;;;;4156330;28;20037;-64
2021/03/07 01:15:33;;;;;;;26.50;12.60;;;-3.90;99.90;;;;;;4157818;28;20034;-64
2021/03/07 01:17:34;;;;;;;24.42;12.00;;;-3.90;99.90;;;;;;4156028;28;20037;-66
2021/03/07 01:19:35;;;;;;;24.25;11.57;;;-3.90;99.90;;;;;;4157524;28;20037;-65
2021/03/07 01:21:36;;;;;;;29.67;12.52;;;-3.90;99.90;;;;;;4156314;28;20084;-63
2021/03/07 01:23:38;;;;;;;27.83;11.77;;;-3.90;99.90;;;;;;4157826;28;20496;-65
2021/03/07 01:25:39;;;;;;;23.10;11.07;;;-3.90;99.90;;;;;;4156480;28;20034;-67
2021/03/07 01:27:40;;;;;;;23.55;10.98;;;-4.00;99.90;;;;;;4157497;28;20095;-65
2021/03/07 01:29:41;;;;;;;24.95;10.18;;;-4.00;99.90;;;;;;4138787;28;20038;-64
2021/03/07 01:31:42;;;;;;;20.05;10.43;;;-4.00;99.90;;;;;;4156976;28;20041;-65
2021/03/07 01:33:44;;;;;;;25.33;11.20;;;-3.90;99.90;;;;;;4156536;28;20076;-64
2021/03/07 01:35:45;;;;;;;26.58;11.70;;;-4.00;99.90;;;;;;4155698;28;20042;-69
2021/03/07 01:37:47;;;;;;;22.58;10.52;;;-4.00;99.90;;;;;;4157015;28;20034;-64
2021/03/07 01:39:48;;;;;;;22.30;8.93;;;-4.00;99.90;;;;;;4155620;28;20029;-62
2021/03/07 01:41:49;;;;;;;19.17;8.25;;;-4.00;99.90;;;;;;4157119;28;20470;-64
2021/03/07 01:43:51;;;;;;;21.48;9.23;;;-4.00;99.90;;;;;;4156110;28;20034;-65
2021/03/07 01:45:54;;;;;;;20.35;8.93;;;-4.00;99.90;;;;;;4157257;28;20434;-64
2021/03/07 01:47:59;;;;;;;27.27;10.00;;;-4.00;99.90;;;;;;4155865;28;20425;-64
2021/03/07 01:50:01;;;;;;;23.30;9.30;;;-3.90;99.90;;;;;;4157785;28;20383;-64
2021/03/07 01:52:02;;;;;;;17.75;9.02;;;-4.00;99.90;;;;;;4155620;28;20096;-64
2021/03/07 01:54:04;;;;;;;24.13;9.55;;;-4.00;99.90;;;;;;4156956;28;20029;-64
2021/03/07 01:56:06;;;;;;;21.60;9.63;;;-4.00;99.90;;;;;;4155688;28;20033;-65
2021/03/07 01:58:11;;;;;;;24.52;10.80;;;-4.00;99.90;;;;;;4156505;28;20482;-67
2021/03/07 02:00:13;;;;;;;26.13;11.10;;;-4.00;99.90;;;;;;4155721;28;20091;-64
2021/03/07 02:02:15;;;;;;;21.63;8.77;;;-4.10;99.90;;;;;;4157377;28;20851;-64
2021/03/07 02:04:16;;;;;;;20.05;8.77;;;-4.10;99.90;;;;;;4159107;28;20695;-63
2021/03/07 02:06:19;;;;;;;18.75;8.70;;;-4.10;99.90;;;;;;4159605;28;20664;-66
2021/03/07 02:08:21;;;;;;;16.60;8.20;;;-4.10;99.90;;;;;;4159581;28;20017;-63
2021/03/07 02:10:28;;;;;;;18.80;7.97;;;-4.10;99.90;;;;;;4159129;28;20071;-63
2021/03/07 02:12:30;;;;;;;17.42;8.50;;;-4.10;99.90;;;;;;4159617;28;20080;-65
2021/03/07 02:14:32;;;;;;;23.67;9.05;;;-4.00;99.90;;;;;;4158988;28;20446;-64
2021/03/07 02:16:34;;;;;;;19.63;8.07;;;-4.10;99.90;;;;;;4160382;28;20079;-65
2021/03/07 02:18:37;;;;;;;16.75;8.07;;;-4.10;99.90;;;;;;4159534;28;20072;-63
2021/03/07 02:20:46;;;;;;;17.58;8.02;;;-4.10;99.90;;;;;;4160515;28;20075;-63
2021/03/07 02:23:15;;;;;;;15.40;7.25;;;-4.10;99.90;;;;;;4158410;28;20041;-66
2021/03/07 02:25:17;;;;;;;22.85;8.70;;;-4.10;99.90;;;;;;4159818;28;20037;-64
2021/03/07 02:27:18;;;;;;;17.02;7.25;;;-4.10;99.90;;;;;;4157370;28;20037;-64
2021/03/07 02:29:22;;;;;;;25.00;9.38;;;-4.10;99.90;;;;;;4160172;28;20083;-63
2021/03/07 02:31:25;;;;;;;23.75;9.95;;;-4.20;99.90;;;;;;4159039;28;20041;-64
2021/03/07 02:33:36;;;;;;;28.60;11.48;;;-4.30;99.90;;;;;;4159630;28;20048;-64
2021/03/07 02:35:43;;;;;;;26.60;9.85;;;-4.30;99.90;;;;;;4158771;28;20107;-65
2021/03/07 02:37:50;;;;;;;23.55;10.30;;;-4.30;99.90;;;;;;4160244;28;20086;-62
2021/03/07 02:39:52;;;;;;;22.33;9.93;;;-4.40;99.90;;;;;;4159098;28;20037;-69
2021/03/07 02:41:58;;;;;;;21.60;9.27;;;-4.40;99.90;;;;;;4160151;28;20068;-64
2021/03/07 02:44:02;;;;;;;20.70;9.13;;;-4.40;99.90;;;;;;4158565;28;20083;-63
2021/03/07 02:46:05;;;;;;;23.13;10.25;;;-4.40;99.90;;;;;;4160469;28;20026;-64
2021/03/07 02:48:10;;;;;;;20.73;8.60;;;-4.40;99.90;;;;;;4158577;28;20055;-63
2021/03/07 02:50:15;;;;;;;18.73;7.75;;;-4.40;99.90;;;;;;4160659;28;20559;-64
2021/03/07 02:52:17;;;;;;;19.13;7.60;;;-4.40;99.90;;;;;;4158929;28;20072;-66
2021/03/07 02:54:20;;;;;;;16.05;6.75;;;-4.40;99.90;;;;;;4160209;28;20084;-64
2021/03/07 02:56:22;;;;;;;19.00;8.50;;;-4.40;99.90;;;;;;4158884;28;20034;-63
2021/03/07 02:58:24;;;;;;;15.05;6.90;;;-4.40;99.90;;;;;;4159421;28;20025;-63
2021/03/07 03:00:26;;;;;;;11.95;5.93;;;-4.40;99.90;;;;;;4158361;28;20099;-65
2021/03/07 03:02:30;;;;;;;14.65;5.90;;;-4.40;99.90;;;;;;4158987;28;20083;-64
2021/03/07 03:04:33;;;;;;;12.27;5.57;;;-4.30;99.90;;;;;;4159252;28;20114;-63
2021/03/07 03:06:42;;;;;;;11.15;4.95;;;-4.30;99.90;;;;;;4158966;28;20095;-63
2021/03/07 03:08:53;;;;;;;13.80;5.07;;;-4.30;99.90;;;;;;4159363;28;20115;-65
2021/03/07 03:10:55;;;;;;;12.98;5.43;;;-4.30;99.90;;;;;;4158529;28;20089;-63
2021/03/07 03:13:00;;;;;;;10.88;4.93;;;-4.30;99.90;;;;;;4158663;28;20061;-64
2021/03/07 03:15:02;;;;;;;10.95;4.97;;;-4.30;99.90;;;;;;4157587;28;20468;-64
2021/03/07 03:17:04;;;;;;;10.75;5.20;;;-4.30;99.90;;;;;;4159447;28;20033;-63
2021/03/07 03:19:09;;;;;;;10.88;4.65;;;-4.20;99.90;;;;;;4158414;28;20759;-64
2021/03/07 03:21:12;;;;;;;10.25;5.05;;;-4.20;99.90;;;;;;4159858;28;20029;-64
2021/03/07 03:23:14;;;;;;;11.90;5.63;;;-4.20;99.90;;;;;;4158112;28;20029;-62
2021/03/07 03:25:16;;;;;;;9.65;4.63;;;-4.20;99.90;;;;;;4159005;28;20099;-64
2021/03/07 03:27:17;;;;;;;11.38;5.57;;;-4.20;99.80;;;;;;4157627;28;20053;-65
2021/03/07 03:29:20;;;;;;;11.43;4.47;;;-4.20;99.70;;;;;;4159244;28;20042;-64
2021/03/07 03:31:21;;;;;;;9.18;4.70;;;-4.20;99.60;;;;;;4157768;28;20532;-67
2021/03/07 03:33:27;;;;;;;11.57;5.10;;;-4.20;99.70;;;;;;4158810;28;20429;-63
2021/03/07 03:35:28;;;;;;;14.23;5.50;;;-4.20;99.60;;;;;;4157542;28;20038;-65
2021/03/07 03:37:29;;;;;;;9.93;4.90;;;-4.20;99.60;;;;;;4159175;28;20026;-64
2021/03/07 03:39:31;;;;;;;11.63;4.63;;;-4.20;99.60;;;;;;4158156;28;20025;-63
2021/03/07 03:41:35;;;;;;;9.43;4.68;;;-4.20;99.60;;;;;;4158487;28;20485;-64
2021/03/07 03:43:40;;;;;;;9.05;4.30;;;-4.20;99.50;;;;;;4139586;28;20042;-64
2021/03/07 03:45:43;;;;;;;12.95;4.18;;;-4.20;99.40;;;;;;4158224;28;20107;-65
2021/03/07 03:47:49;;;;;;;10.75;4.47;;;-4.20;99.40;;;;;;4158111;28;20059;-64
2021/03/07 03:49:59;;;;;;;9.00;4.38;;;-4.20;99.40;;;;;;4158347;28;20760;-64
2021/03/07 03:52:08;;;;;;;8.70;3.55;;;-4.20;99.50;;;;;;4158453;28;20513;-66
2021/03/07 03:54:10;;;;;;;9.43;4.15;;;-4.20;99.40;;;;;;4158490;28;20446;-64
2021/03/07 03:56:15;;;;;;;10.27;4.30;;;-4.20;99.30;;;;;;4158457;28;20083;-64
2021/03/07 03:58:23;;;;;;;12.35;4.47;;;-4.20;99.30;;;;;;4157793;28;20026;-70
2021/03/07 04:00:26;;;;;;;8.50;4.10;;;-4.20;99.30;;;;;;4158498;28;20025;-63
2021/03/07 04:02:28;;;;;;;10.90;4.20;;;-4.30;99.30;;;;;;4156131;28;20080;-63
2021/03/07 04:04:32;;;;;;;12.07;4.25;;;-4.30;99.20;;;;;;4158243;28;20079;-64
2021/03/07 04:06:33;;;;;;;7.47;4.32;;;-4.20;99.50;;;;;;4157100;28;20854;-64
2021/03/07 04:08:36;;;;;;;9.13;4.40;;;-4.30;99.20;;;;;;4159122;28;20092;-64
2021/03/07 04:10:37;;;;;;;11.15;3.85;;;-4.30;99.20;;;;;;4157405;28;20569;-65
2021/03/07 04:12:40;;;;;;;11.02;4.60;;;-4.30;99.30;;;;;;4158748;28;20689;-64
2021/03/07 04:14:43;;;;;;;8.63;3.95;;;-4.40;99.30;;;;;;4157283;28;20075;-64
2021/03/07 04:16:49;;;;;;;9.07;3.97;;;-4.40;99.30;;;;;;4158549;28;20041;-64
2021/03/07 04:18:50;;;;;;;9.52;4.13;;;-4.40;99.30;;;;;;4157078;28;20041;-64
2021/03/07 04:20:52;;;;;;;8.77;4.28;;;-4.50;99.40;;;;;;4158785;28;20367;-64
2021/03/07 04:22:54;;;;;;;8.93;4.15;;;-4.50;99.50;;;;;;4156954;28;20382;-64
2021/03/07 04:24:55;;;;;;;7.53;3.80;;;-4.60;99.60;;;;;;4157907;28;20084;-66
2021/03/07 04:26:57;;;;;;;13.70;4.90;;;-4.60;99.70;;;;;;4157197;28;20029;-65
2021/03/07 04:28:59;;;;;;;10.23;5.20;;;-4.50;99.70;;;;;;4157978;28;20029;-65
2021/03/07 04:31:01;;;;;;;19.63;7.65;;;-4.50;99.70;;;;;;4157314;28;20115;-65
2021/03/07 04:33:03;;;;;;;12.35;6.80;;;-4.50;99.80;;;;;;4157570;28;20079;-64
2021/03/07 04:35:05;;;;;;;17.92;7.07;;;-4.60;99.90;;;;;;4157672;28;20900;-65
2021/03/07 04:37:07;;;;;;;16.77;6.75;;;-4.60;99.90;;;;;;4157236;28;20115;-65
2021/03/07 04:39:09;;;;;;;16.08;7.20;;;-4.60;99.90;;;;;;4157255;28;20440;-70
2021/03/07 04:41:10;;;;;;;16.95;7.90;;;-4.60;99.90;;;;;;4156840;28;20029;-65
2021/03/07 04:43:11;;;;;;;23.70;7.82;;;-4.70;99.90;;;;;;4158205;28;20025;-64
2021/03/07 04:45:14;;;;;;;23.77;9.85;;;-4.70;99.90;;;;;;4156931;28;20144;-65
2021/03/07 04:47:15;;;;;;;27.30;10.13;;;-4.80;99.90;;;;;;4158293;28;20362;-66
2021/03/07 04:49:17;;;;;;;35.13;10.70;;;-4.80;99.90;;;;;;4157151;28;20051;-69
2021/03/07 04:51:19;;;;;;;20.75;9.65;;;-4.80;99.90;;;;;;4158343;28;20088;-65
2021/03/07 04:53:20;;;;;;;30.88;10.32;;;-4.90;99.90;;;;;;4155262;28;20045;-65
2021/03/07 04:55:21;;;;;;;23.20;9.45;;;-4.90;99.90;;;;;;4157839;28;20087;-69
2021/03/07 04:57:22;;;;;;;22.63;9.30;;;-4.90;99.90;;;;;;4156215;28;20486;-65
2021/03/07 04:59:23;;;;;;;22.27;9.30;;;-4.90;99.90;;;;;;4157826;28;20029;-63
2021/03/07 05:01:25;;;;;;;22.25;10.10;;;-5.00;99.90;;;;;;4157155;28;20033;-68
2021/03/07 05:03:26;;;;;;;25.02;9.57;;;-5.00;99.90;;;;;;4157236;28;20029;-66
2021/03/07 05:05:27;;;;;;;22.25;9.82;;;-5.00;99.90;;;;;;4157582;28;20053;-66
2021/03/07 05:07:28;;;;;;;18.92;8.98;;;-5.00;99.90;;;;;;4156919;28;20094;-64
2021/03/07 05:09:30;;;;;;;17.75;8.23;;;-5.00;99.90;;;;;;4157570;28;20033;-65
2021/03/07 05:11:31;;;;;;;23.23;7.88;;;-4.80;99.90;;;;;;4156417;28;20029;-65
2021/03/07 05:13:33;;;;;;;17.65;7.28;;;-4.50;99.90;;;;;;4157287;28;20452;-64
2021/03/07 05:15:34;;;;;;;16.55;6.65;;;-4.10;99.90;;;;;;4156789;28;20029;-68
2021/03/07 05:17:36;;;;;;;16.80;7.28;;;-3.80;99.90;;;;;;4156215;28;20444;-66
2021/03/07 05:19:37;;;;;;;21.73;6.30;;;-3.40;99.90;;;;;;4156488;28;20383;-67
2021/03/07 05:21:38;;;;;;;17.23;5.65;;;-3.10;99.90;;;;;;4157815;28;20063;-65
2021/03/07 05:23:40;;;;;;;11.48;4.75;;;-2.70;99.70;;;;;;4156654;28;20026;-65
2021/03/07 05:25:41;;;;;;;10.45;4.18;;;-2.20;99.00;;;;;;4157637;28;20544;-65
2021/03/07 05:27:42;;;;;;;11.20;4.83;;;-1.90;98.00;;;;;;4156623;28;20033;-65
2021/03/07 05:29:44;;;;;;;14.70;6.63;;;-1.50;97.20;;;;;;4156863;28;20267;-64
2021/03/07 05:31:45;;;;;;;15.17;7.30;;;-1.10;96.90;;;;;;4155246;28;20279;-65
2021/03/07 05:33:46;;;;;;;16.03;7.53;;;-0.60;96.70;;;;;;4156641;28;20305;-66
2021/03/07 05:35:48;;;;;;;16.63;7.90;;;-0.20;95.30;;;;;;4156642;28;20753;-65
2021/03/07 05:37:49;;;;;;;25.40;10.40;;;0.30;94.30;;;;;;4156621;28;20286;-65
2021/03/07 05:39:50;;;;;;;24.57;12.77;;;0.60;94.10;;;;;;4157370;28;20275;-69
2021/03/07 05:41:53;;;;;;;30.50;12.93;;;0.50;91.80;;;;;;4155890;28;20282;-65
2021/03/07 05:43:55;;;;;;;37.07;16.70;;;0.50;92.50;;;;;;4157374;28;20313;-65
2021/03/07 05:45:56;;;;;;;37.70;18.03;;;0.60;91.90;;;;;;4155372;28;20267;-66
2021/03/07 05:47:58;;;;;;;37.33;17.77;;;0.70;91.60;;;;;;4156976;28;20327;-65
2021/03/07 05:49:59;;;;;;;41.67;17.90;;;0.60;91.00;;;;;;4155293;28;20372;-65
2021/03/07 05:52:00;;;;;;;34.77;17.47;;;1.00;91.50;;;;;;4159164;28;20274;-70
2021/03/07 05:54:04;;;;;;;31.53;13.97;;;1.30;91.00;;;;;;4138151;28;20827;-64
2021/03/07 05:56:06;;;;;;;25.07;12.03;;;1.50;90.30;;;;;;4139166;28;20283;-64
2021/03/07 05:58:08;;;;;;;27.33;12.63;;;1.80;89.10;;;;;;4155626;28;20333;-65
2021/03/07 06:00:11;;;;;;;26.33;12.17;;;2.00;87.80;;;;;;4157605;28;20482;-70
2021/03/07 06:02:16;;;;;;;23.73;11.00;;;2.40;87.80;;;;;;4156172;28;20246;-63
2021/03/07 06:04:17;;;;;;;36.87;11.70;;;2.90;86.60;;;;;;4156534;28;20754;-67
2021/03/07 06:06:18;;;;;;;20.53;10.83;;;3.50;86.40;;;;;;4155619;28;20332;-66
2021/03/07 06:08:20;;;;;;;22.97;11.20;;;4.00;81.80;;;;;;4156012;28;20681;-68
2021/03/07 06:10:24;;;;;;;18.33;11.13;;;4.40;81.10;;;;;;4140578;28;20310;-69
2021/03/07 06:12:26;;;;;;;18.80;9.63;;;4.90;78.80;;;;;;4139394;28;20291;-72
2021/03/07 06:14:30;;;;;;;19.93;8.27;;;5.20;76.80;;;;;;4139841;28;20333;-73
2021/03/07 06:16:31;;;;;;;31.30;17.10;;;5.40;73.40;;;;;;4121491;28;20272;-71
2021/03/07 06:18:42;;;;;;;47.67;26.10;;;5.80;73.70;;;;;;4140902;28;20322;-70
2021/03/07 06:20:46;;;;;;;33.63;22.17;;;6.10;68.70;;;;;;4140012;28;20030;-74
2021/03/07 06:22:55;;;;;;;25.77;15.20;;;6.40;68.20;;;;;;4140878;28;20030;-69
2021/03/07 06:24:57;;;;;;;15.90;8.73;;;6.40;68.20;;;;;;4139770;28;20084;-69
2021/03/07 06:27:10;;;;;;;13.27;6.57;;;6.70;67.60;;;;;;4140649;28;20030;-71
2021/03/07 06:29:13;;;;;;;6.57;4.90;;;7.20;64.30;;;;;;4139221;28;20040;-68
2021/03/07 06:31:30;;;;;;;8.97;5.97;;;7.50;63.10;;;;;;4149637;28;20037;-69
2021/03/07 06:33:34;;;;;;;10.83;5.67;;;7.50;58.60;;;;;;4155014;28;20033;-71
2021/03/07 06:35:35;;;;;;;10.37;5.03;;;7.20;60.20;;;;;;4157227;28;20025;-70
2021/03/07 06:37:58;;;;;;;11.30;6.20;;;7.10;59.90;;;;;;4155398;28;20026;-64
2021/03/07 06:40:00;;;;;;;6.53;4.50;;;7.30;57.70;;;;;;4157345;28;20422;-65
2021/03/07 06:42:03;;;;;;;9.70;5.33;;;7.70;58.90;;;;;;4155640;28;20413;-66
2021/03/07 06:44:17;;;;;;;12.50;7.53;;;7.70;57.60;;;;;;4155328;28;20045;-65
2021/03/07 06:46:37;;;;;;;12.30;6.13;;;8.00;55.20;;;;;;4153461;28;20046;-64
2021/03/07 06:48:38;;;;;;;7.47;4.37;;;7.90;54.50;;;;;;4156901;28;20037;-64
2021/03/07 06:50:53;;;;;;;9.47;5.37;;;7.80;56.00;;;;;;4157186;28;20037;-62
2021/03/07 06:52:57;;;;;;;8.23;5.33;;;7.30;53.80;;;;;;4159703;28;20103;-69
2021/03/07 06:55:12;;;;;;;8.27;4.90;;;7.30;55.90;;;;;;4158793;28;20485;-64
2021/03/07 06:57:27;;;;;;;9.30;4.50;;;7.70;55.00;;;;;;4159864;28;20033;-63
2021/03/07 06:59:29;;;;;;;8.53;4.67;;;8.20;53.40;;;;;;4157533;28;20448;-66
2021/03/07 07:01:41;;;;;;;10.37;4.43;;;8.30;53.70;;;;;;4159516;28;20367;-64
2021/03/07 07:03:57;;;;;;;9.07;4.87;;;8.30;52.70;;;;;;4157288;28;20095;-65
2021/03/07 07:05:58;;;;;;;11.10;4.93;;;8.20;51.60;;;;;;4159036;28;20045;-64
2021/03/07 07:07:59;;;;;;;8.70;4.23;;;8.10;53.20;;;;;;4157548;28;20087;-67
2021/03/07 07:10:06;;;;;;;9.13;5.03;;;8.10;52.40;;;;;;4158817;28;20145;-64
2021/03/07 07:12:18;;;;;;;6.87;4.27;;;8.30;51.70;;;;;;4158938;28;20037;-66
2021/03/07 07:14:42;;;;;;;6.10;3.50;;;8.30;51.80;;;;;;4158902;28;20041;-74
2021/03/07 07:16:43;;;;;;;8.70;4.23;;;8.30;50.30;;;;;;4156139;28;20037;-69
2021/03/07 07:18:45;;;;;;;9.73;4.50;;;8.30;51.00;;;;;;4159508;28;20080;-81
2021/03/07 07:20:46;;;;;;;9.47;3.93;;;7.80;51.30;;;;;;4158915;28;20076;-72
2021/03/07 07:22:48;;;;;;;11.37;4.67;;;7.40;51.70;;;;;;4158787;28;20091;-74
2021/03/07 07:24:50;;;;;;;8.73;4.33;;;7.30;52.00;;;;;;4158188;28;20033;-74
2021/03/07 07:26:51;;;;;;;15.47;5.63;;;7.40;52.00;;;;;;4159282;28;20096;-70
2021/03/07 07:28:52;;;;;;;9.27;4.70;;;7.50;52.00;;;;;;4157540;28;20030;-72
2021/03/07 07:31:07;;;;;;;7.47;4.87;;;8.10;51.80;;;;;;4159063;28;20037;-66
2021/03/07 07:33:16;;;;;;;9.73;4.83;;;8.30;50.60;;;;;;4157922;28;20115;-64
2021/03/07 07:35:26;;;;;;;8.70;4.60;;;8.40;50.50;;;;;;4159008;28;20033;-71
2021/03/07 07:37:35;;;;;;;8.55;4.82;;;8.20;50.40;;;;;;4157983;28;20432;-61
2021/03/07 07:39:38;;;;;;;8.73;4.00;;;8.30;50.70;;;;;;4157403;28;20468;-65
2021/03/07 07:41:40;;;;;;;8.37;4.90;;;8.30;51.30;;;;;;4157784;28;20025;-63
2021/03/07 07:43:51;;;;;;;11.07;4.97;;;8.30;50.90;;;;;;4157957;28;20064;-65
2021/03/07 07:46:11;;;;;;;7.25;4.70;;;8.20;50.90;;;;;;4155787;28;20039;-63
2021/03/07 07:48:32;;;;;;;6.70;3.10;;;8.00;49.20;;;;;;4158694;28;20440;-61
2021/03/07 07:50:37;;;;;;;;;;;8.00;49.30;;;;;;4158113;28;20026;-61
2021/03/07 07:52:38;;;;;;;7.70;4.10;;;7.80;47.30;;;;;;4158384;28;19909;-60
2021/03/07 07:54:54;;;;;;;8.03;4.27;;;7.70;50.90;;;;;;4157922;28;20037;-61
2021/03/07 07:56:56;;;;;;;6.07;4.30;;;7.50;49.40;;;;;;4157955;28;20099;-61
2021/03/07 07:58:57;;;;;;;6.10;3.83;;;7.20;50.50;;;;;;4139579;28;20037;-61
2021/03/07 08:00:59;;;;;;;6.73;4.13;;;6.80;50.30;;;;;;4157157;28;20079;-64
2021/03/07 08:03:01;;;;;;;7.33;3.93;;;6.90;50.90;;;;;;4155519;28;20472;-62
2021/03/07 08:05:02;;;;;;;8.73;4.50;;;7.10;51.10;;;;;;4156519;28;20113;-65
2021/03/07 08:07:04;;;;;;;11.80;4.47;;;7.00;51.20;;;;;;4157668;28;20033;-63
2021/03/07 08:09:34;;;;;;;10.27;4.60;;;7.10;50.80;;;;;;4157846;28;20083;-64
2021/03/07 08:11:35;;;;;;;8.77;4.47;;;7.30;49.90;;;;;;4157660;28;20029;-62
2021/03/07 08:13:36;;;;;;;9.53;5.47;;;7.20;50.30;;;;;;4155595;28;20057;-64
2021/03/07 08:15:44;;;;;;;9.57;5.43;;;7.10;50.70;;;;;;4157669;28;20029;-66
2021/03/07 08:17:55;;;;;;;10.53;5.00;;;7.10;50.50;;;;;;4146342;28;20029;-65
2021/03/07 08:19:56;;;;;;;9.30;5.63;;;7.30;50.70;;;;;;4157743;28;20115;-68
2021/03/07 08:22:07;;;;;;;9.43;5.00;;;7.30;50.20;;;;;;4157316;28;21010;-72
2021/03/07 08:24:09;;;;;;;9.07;4.97;;;7.00;49.80;;;;;;4157719;28;20366;-67
2021/03/07 08:26:10;;;;;;;9.40;5.37;;;6.10;50.20;;;;;;4156586;28;20067;-67
2021/03/07 08:28:29;;;;;;;54.00;23.23;;;5.60;51.50;;;;;;4157695;28;20029;-66
2021/03/07 08:30:38;;;;;;;11.13;6.43;;;5.20;51.60;;;;;;4156463;28;20033;-66
2021/03/07 08:32:41;;;;;;;60.13;23.20;;;5.00;52.60;;;;;;4146132;28;21109;-70
2021/03/07 08:34:44;;;;;;;9.60;6.03;;;4.90;53.40;;;;;;4156018;28;20852;-67
2021/03/07 08:36:54;;;;;;;14.80;6.77;;;4.80;53.10;;;;;;4155912;28;20294;-73
2021/03/07 08:38:55;;;;;;;12.07;7.43;;;4.90;53.20;;;;;;4156009;28;20270;-68
2021/03/07 08:40:57;;;;;;;10.07;5.17;;;4.90;53.50;;;;;;4157275;28;20383;-68
2021/03/07 08:43:22;;;;;;;50.50;20.27;;;5.00;53.00;;;;;;4148687;28;20283;-71
2021/03/07 08:45:24;;;;;;;18.47;9.03;;;5.30;53.40;;;;;;4157396;28;20808;-68
2021/03/07 08:47:55;;;;;;;10.17;5.40;;;5.70;53.20;;;;;;4154692;28;20890;-68
2021/03/07 08:50:05;;;;;;;11.20;5.90;;;5.60;51.10;;;;;;4155601;28;20809;-67
2021/03/07 08:52:06;;;;;;;11.17;5.97;;;5.40;52.60;;;;;;4156728;28;20266;-68
2021/03/07 08:54:11;;;;;;;9.33;5.83;;;5.60;53.20;;;;;;4156624;28;20633;-68
2021/03/07 08:56:14;;;;;;;10.53;4.47;;;5.60;52.30;;;;;;4153740;28;21167;-72
2021/03/07 08:58:18;;;;;;;10.73;5.07;;;5.70;51.30;;;;;;4156555;28;20270;-66
2021/03/07 09:00:20;;;;;;;12.30;6.70;;;5.90;51.60;;;;;;4143713;28;20283;-67
2021/03/07 09:02:21;;;;;;;8.67;5.47;;;6.20;51.90;;;;;;4157215;28;20279;-65
2021/03/07 09:04:31;;;;;;;12.30;5.43;;;6.50;51.30;;;;;;4156292;28;20340;-68
2021/03/07 09:06:34;;;;;;;9.37;5.07;;;6.60;50.90;;;;;;4138691;28;20310;-67
2021/03/07 09:08:35;;;;;;;9.47;5.73;;;6.70;50.80;;;;;;4156332;28;20348;-67
2021/03/07 09:10:39;;;;;;;11.70;6.13;;;6.60;50.50;;;;;;4155515;28;20667;-68
2021/03/07 09:12:41;;;;;;;9.33;5.37;;;6.30;50.80;;;;;;4155121;28;20325;-68
2021/03/07 09:14:42;;;;;;;11.27;5.50;;;5.90;51.00;;;;;;4156579;28;20298;-67
2021/03/07 09:16:46;;;;;;;10.33;4.53;;;5.70;51.80;;;;;;4156050;28;20328;-68
2021/03/07 09:18:47;;;;;;;8.17;4.50;;;5.60;51.20;;;;;;4156489;28;20670;-68
2021/03/07 09:20:52;;;;;;;8.77;4.60;;;5.50;51.40;;;;;;4157275;28;20262;-68
2021/03/07 09:22:53;;;;;;;8.63;4.97;;;5.30;51.00;;;;;;4156077;28;20337;-68
2021/03/07 09:24:56;;;;;;;8.57;4.60;;;5.10;51.40;;;;;;4157027;28;20620;-67
2021/03/07 09:27:08;;;;;;;7.30;4.57;;;5.30;51.90;;;;;;4155893;28;20266;-68
2021/03/07 09:29:09;;;;;;;5.57;3.53;;;5.70;51.10;;;;;;4157101;28;20267;-68
2021/03/07 09:31:32;;;;;;;5.93;2.90;;;6.10;50.80;;;;;;4155201;28;20786;-68
2021/03/07 09:33:33;;;;;;;4.83;3.10;;;6.50;48.50;;;;;;4156810;28;20800;-69
2021/03/07 09:35:36;;;;;;;5.63;3.20;;;6.60;49.00;;;;;;4154659;28;20684;-67
2021/03/07 09:37:37;;;;;;;5.23;2.77;;;6.40;48.30;;;;;;4156362;28;20832;-67
2021/03/07 09:39:45;;;;;;;5.37;2.90;;;6.40;48.80;;;;;;4143557;28;20295;-70
2021/03/07 09:41:49;;;;;;;5.70;2.73;;;6.70;49.00;;;;;;4157263;28;20275;-66
2021/03/07 09:43:50;;;;;;;7.67;2.50;;;6.80;48.40;;;;;;4155344;28;20337;-67
2021/03/07 09:45:52;;;;;;;8.37;2.40;;;6.80;47.70;;;;;;4155988;28;20340;-66
2021/03/07 09:47:54;;;;;;;4.60;2.73;;;6.90;48.30;;;;;;4155248;28;20294;-65
2021/03/07 09:49:56;;;;;;;5.37;2.87;;;7.00;47.90;;;;;;4156411;28;20286;-67
2021/03/07 09:51:58;;;;;;;4.73;2.60;;;7.00;47.90;;;;;;4155671;28;20274;-67
2021/03/07 09:54:00;;;;;;;3.20;2.43;;;7.30;48.30;;;;;;4156768;28;20398;-67
2021/03/07 09:56:02;;;;;;;3.23;2.70;;;7.40;47.80;;;;;;4154876;28;20360;-70
2021/03/07 09:58:05;;;;;;;3.77;2.33;;;7.30;47.20;;;;;;4156808;28;20404;-72
2021/03/07 10:00:07;;;;;;;4.60;3.20;;;7.30;46.60;;;;;;4154668;28;20017;-67
2021/03/07 10:02:08;;;;;;;11.93;7.37;;;7.30;47.40;;;;;;4156434;28;20317;-66
2021/03/07 10:04:37;;;;;;;24.03;12.27;;;7.30;46.90;;;;;;4156326;28;20572;-68
2021/03/07 10:06:38;;;;;;;6.37;3.83;;;7.10;45.50;;;;;;4148309;28;20853;-68
2021/03/07 10:08:40;;;;;;;9.57;4.20;;;7.00;47.50;;;;;;4155771;28;20045;-67
2021/03/07 10:10:41;;;;;;;11.10;7.13;;;7.00;47.50;;;;;;4156167;28;20271;-65
2021/03/07 10:12:56;;;;;;;5.07;3.90;;;7.20;47.60;;;;;;4155221;28;20088;-67
2021/03/07 10:14:57;;;;;;;3.63;2.23;;;7.10;46.90;;;;;;4136127;28;20058;-68
2021/03/07 10:16:59;;;;;;;13.70;3.90;;;6.90;46.90;;;;;;4156153;28;20029;-67
2021/03/07 10:19:03;;;;;;;7.53;2.73;;;6.60;45.40;;;;;;4155643;28;20685;-69
2021/03/07 10:21:06;;;;;;;4.63;3.47;;;6.20;46.90;;;;;;4157077;28;20072;-66
2021/03/07 10:23:08;;;;;;;3.70;2.00;;;6.30;47.50;;;;;;4155290;28;20345;-64
2021/03/07 10:25:23;;;;;;;7.17;3.00;;;6.40;47.50;;;;;;4159770;28;20271;-62
2021/03/07 10:27:30;;;;;;;6.60;4.07;;;6.40;47.00;;;;;;4159573;28;20348;-63
2021/03/07 10:29:37;;;;;;;5.07;2.77;;;6.50;47.20;;;;;;4141339;28;20279;-68
2021/03/07 10:31:38;;;;;;;6.03;2.80;;;6.70;47.90;;;;;;4158622;28;20042;-66
2021/03/07 10:33:40;;;;;;;11.60;6.60;;;6.90;47.60;;;;;;4159446;28;20350;-64
2021/03/07 10:36:03;;;;;;;9.00;5.57;;;7.10;46.90;;;;;;4158026;28;20087;-68
2021/03/07 10:38:05;;;;;;;9.57;6.57;;;7.10;46.30;;;;;;4158934;28;20373;-63
2021/03/07 10:40:12;;;;;;;8.30;5.53;;;7.10;47.10;;;;;;4157865;28;20282;-64
2021/03/07 10:42:13;;;;;;;7.20;4.73;;;7.20;47.50;;;;;;4158856;28;20033;-67